createdAt,value
2018-12-25T00:05:11.829Z,4.80
2018-12-25T00:11:38.657Z,4.10
2018-12-25T00:18:05.492Z,4.80
2018-12-25T00:24:31.320Z,3.83
2018-12-25T00:30:56.891Z,4.20
2018-12-25T00:37:12.510Z,4.00
2018-12-25T00:43:01.082Z,4.07
2018-12-25T00:49:24.883Z,4.43
2018-12-25T00:55:50.734Z,5.20
2018-12-25T01:02:17.403Z,4.63
2018-12-25T01:08:45.298Z,5.50
2018-12-25T01:15:11.418Z,5.20
2018-12-25T01:21:39.044Z,4.50
2018-12-25T01:28:02.846Z,5.60
2018-12-25T01:34:29.889Z,4.40
2018-12-25T01:44:03.575Z,4.23
2018-12-25T01:50:32.421Z,4.30
2018-12-25T01:56:58.242Z,4.33
2018-12-25T02:03:24.065Z,5.07
2018-12-25T02:09:49.647Z,4.20
2018-12-25T02:16:13.442Z,4.40
2018-12-25T02:22:44.207Z,3.63
2018-12-25T02:29:15.421Z,4.30
2018-12-25T02:35:53.126Z,4.87
2018-12-25T02:45:20.986Z,4.03
2018-12-25T02:51:59.932Z,3.93
2018-12-25T02:58:38.883Z,4.20
2018-12-25T03:05:18.520Z,3.70
2018-12-25T03:12:01.586Z,4.50
2018-12-25T03:18:42.799Z,4.42
2018-12-25T03:25:09.630Z,4.47
2018-12-25T03:31:37.474Z,3.97
2018-12-25T03:38:03.289Z,4.37
2018-12-25T03:43:53.205Z,4.58
2018-12-25T03:50:22.615Z,3.77
2018-12-25T03:57:05.610Z,4.25
2018-12-25T04:03:44.347Z,4.45
2018-12-25T04:10:24.121Z,3.43
2018-12-25T04:17:09.520Z,3.80
2018-12-25T04:23:35.343Z,4.00
2018-12-25T04:30:02.971Z,4.30
2018-12-25T04:36:30.013Z,4.00
2018-12-25T04:42:45.659Z,3.90
2018-12-25T04:49:02.465Z,4.60
2018-12-25T04:55:32.038Z,3.85
2018-12-25T05:01:58.143Z,4.30
2018-12-25T05:08:24.983Z,3.52
2018-12-25T05:14:49.781Z,4.10
2018-12-25T05:21:16.256Z,3.87
2018-12-25T05:27:57.583Z,3.42
2018-12-25T05:34:25.286Z,4.15
2018-12-25T05:40:53.055Z,3.80
2018-12-25T05:47:20.088Z,4.35
2018-12-25T05:53:36.822Z,3.70
2018-12-25T06:00:19.813Z,3.42
2018-12-25T06:06:56.741Z,3.85
2018-12-25T06:13:40.404Z,4.62
2018-12-25T06:20:35.862Z,3.85
2018-12-25T06:27:04.700Z,4.05
2018-12-25T06:33:32.581Z,3.72
2018-12-25T06:40:06.398Z,4.33
2018-12-25T06:45:56.913Z,4.75
2018-12-25T06:59:23.902Z,4.47
2018-12-25T07:05:55.784Z,3.45
2018-12-25T07:12:21.608Z,4.53
2018-12-25T07:18:49.285Z,4.85
2018-12-25T07:25:18.302Z,4.92
2018-12-25T07:31:44.122Z,4.87
2018-12-25T07:38:09.693Z,4.50
2018-12-25T07:50:53.208Z,4.50
2018-12-25T08:01:07.582Z,6.17
2018-12-25T08:07:39.462Z,4.92
2018-12-25T08:14:07.099Z,4.55
2018-12-25T08:20:34.130Z,4.42
2018-12-25T08:27:06.011Z,5.08
2018-12-25T08:33:36.523Z,4.40
2018-12-25T08:40:07.295Z,5.85
2018-12-25T08:45:55.869Z,5.42
2018-12-25T08:52:25.812Z,4.83
2018-12-25T09:02:39.130Z,5.40
2018-12-25T09:09:20.835Z,6.42
2018-12-25T09:16:05.923Z,5.28
2018-12-25T09:22:51.850Z,5.22
2018-12-25T09:29:35.131Z,4.65
2018-12-25T09:36:27.210Z,5.90
2018-12-25T09:42:31.510Z,6.30
2018-12-25T09:49:12.792Z,6.53
2018-12-25T09:55:47.376Z,6.33
2018-12-25T10:06:03.800Z,6.65
2018-12-25T10:12:43.759Z,6.70
2018-12-25T10:19:27.390Z,6.33
2018-12-25T10:26:06.443Z,6.58
2018-12-25T10:32:43.641Z,5.55
2018-12-25T10:39:26.405Z,6.37
2018-12-25T10:46:05.362Z,5.10
2018-12-25T10:52:44.322Z,7.78
2018-12-25T10:59:11.364Z,8.90
2018-12-25T11:09:04.918Z,7.28
2018-12-25T11:15:48.229Z,13.30
2018-12-25T11:22:25.160Z,8.37
2018-12-25T11:29:04.108Z,8.30
2018-12-25T11:35:45.091Z,6.93
2018-12-25T11:42:22.024Z,8.20
2018-12-25T11:49:00.715Z,7.30
2018-12-25T11:55:30.827Z,7.40
2018-12-25T12:01:56.112Z,6.63
2018-12-25T12:12:13.753Z,7.93
2018-12-25T12:18:49.470Z,5.20
2018-12-25T12:25:28.428Z,5.20
2018-12-25T12:32:07.587Z,4.20
2018-12-25T12:38:47.977Z,3.90
2018-12-25T12:44:51.135Z,4.20
2018-12-25T12:51:30.093Z,5.23
2018-12-25T12:58:09.176Z,4.13
2018-12-25T13:01:04.525Z,4.27
2018-12-25T13:06:56.261Z,3.03
2018-12-25T13:13:22.080Z,4.80
2018-12-25T13:20:00.775Z,4.50
2018-12-25T13:26:39.982Z,3.13
2018-12-25T13:33:16.911Z,3.20
2018-12-25T13:39:55.870Z,3.00
2018-12-25T13:46:32.803Z,2.13
2018-12-25T13:53:02.846Z,2.47
2018-12-25T13:59:26.261Z,3.50
2018-12-25T14:09:40.540Z,3.57
2018-12-25T14:16:26.558Z,4.80
2018-12-25T14:22:54.079Z,3.47
2018-12-25T14:29:21.984Z,4.00
2018-12-25T14:35:47.826Z,3.80
2018-12-25T14:42:13.881Z,4.10
2018-12-25T14:48:37.479Z,3.80
2018-12-25T14:55:05.387Z,3.10
2018-12-25T15:01:32.351Z,2.60
2018-12-25T15:11:46.432Z,3.83
2018-12-25T15:18:15.992Z,3.03
2018-12-25T15:24:07.436Z,2.80
2018-12-25T15:30:33.598Z,2.93
2018-12-25T15:37:02.803Z,2.97
2018-12-25T15:43:34.359Z,4.03
2018-12-25T15:50:17.309Z,3.27
2018-12-25T15:56:45.150Z,5.50
2018-12-25T16:03:11.983Z,4.63
2018-12-25T16:13:14.566Z,4.60
2018-12-25T16:19:40.769Z,6.20
2018-12-25T16:25:34.272Z,4.97
2018-12-25T16:32:02.118Z,5.80
2018-12-25T16:38:40.761Z,5.83
2018-12-25T16:45:20.011Z,5.20
2018-12-25T16:51:58.962Z,5.17
2018-12-25T16:58:37.912Z,5.30
2018-12-25T17:05:18.634Z,5.03
2018-12-25T17:15:22.862Z,6.20
2018-12-25T17:22:02.592Z,5.10
2018-12-25T17:28:28.639Z,5.07
2018-12-25T17:34:55.101Z,6.23
2018-12-25T17:41:23.001Z,7.17
2018-12-25T17:47:50.907Z,6.97
2018-12-25T17:54:18.797Z,6.23
2018-12-25T18:00:43.800Z,8.30
2018-12-25T18:07:13.660Z,8.63
2018-12-25T18:17:18.755Z,8.98
2018-12-25T18:23:17.995Z,11.30
2018-12-25T18:29:49.081Z,8.65
2018-12-25T18:36:14.901Z,8.60
2018-12-25T18:42:42.750Z,8.00
2018-12-25T18:49:08.352Z,8.40
2018-12-25T18:55:35.487Z,7.28
2018-12-25T19:02:02.925Z,7.10
2018-12-25T19:08:42.182Z,6.20
2018-12-25T19:18:56.265Z,6.42
2018-12-25T19:24:48.560Z,6.45
2018-12-25T19:31:12.356Z,9.45
2018-12-25T19:37:56.226Z,6.22
2018-12-25T19:44:22.372Z,5.60
2018-12-25T19:50:48.193Z,6.70
2018-12-25T19:56:42.646Z,5.37
2018-12-25T20:03:24.680Z,6.12
2018-12-25T20:10:21.462Z,6.42
2018-12-25T20:21:05.785Z,6.42
2018-12-25T20:28:21.501Z,5.72
2018-12-25T20:35:46.908Z,6.12
2018-12-25T20:43:12.320Z,5.22
2018-12-25T20:50:35.718Z,6.50
2018-12-25T20:57:30.830Z,9.05
2018-12-25T21:04:48.161Z,7.53
2018-12-25T21:12:24.372Z,8.03
2018-12-25T21:23:31.279Z,9.33
2018-12-25T21:30:00.140Z,9.00
2018-12-25T21:36:37.067Z,8.15
2018-12-25T21:43:03.505Z,7.47
2018-12-25T21:49:48.900Z,8.30
2018-12-25T21:56:18.765Z,7.95
2018-12-25T22:03:01.761Z,7.50
2018-12-25T22:09:41.711Z,6.55
2018-12-25T22:16:20.747Z,7.10
2018-12-25T22:26:23.284Z,5.90
2018-12-25T22:33:02.578Z,5.37
2018-12-25T22:39:43.549Z,6.55
2018-12-25T22:46:22.502Z,5.40
2018-12-25T22:53:03.470Z,5.40
2018-12-25T22:59:11.856Z,5.10
2018-12-25T23:05:52.868Z,6.00
2018-12-25T23:12:31.820Z,6.60
2018-12-25T23:19:10.776Z,7.22
2018-12-25T23:28:39.312Z,9.13
2018-12-25T23:35:05.449Z,8.10
2018-12-25T23:41:31.019Z,8.83
2018-12-25T23:47:56.863Z,6.22
2018-12-25T23:54:25.580Z,6.83
